createdAt,value
2022-08-05T00:02:11.462Z,84.41
2022-08-05T00:04:40.309Z,84.06
2022-08-05T00:07:26.936Z,85.26
2022-08-05T00:09:54.625Z,84.38
2022-08-05T00:12:29.836Z,84.91
2022-08-05T00:14:56.549Z,85.00
2022-08-05T00:17:23.256Z,84.25
2022-08-05T00:20:02.514Z,85.36
2022-08-05T00:22:31.084Z,85.57
2022-08-05T00:25:01.245Z,85.74
2022-08-05T00:27:36.162Z,84.03
2022-08-05T00:30:05.357Z,82.63
2022-08-05T00:32:38.269Z,83.02
2022-08-05T00:35:08.097Z,82.61
2022-08-05T00:37:53.206Z,83.89
2022-08-05T00:40:27.267Z,82.88
2022-08-05T00:42:58.228Z,81.03
2022-08-05T00:45:38.412Z,80.16
2022-08-05T00:48:27.418Z,80.83
2022-08-05T00:50:59.795Z,82.25
2022-08-05T00:54:01.110Z,80.41
2022-08-05T00:56:23.113Z,81.55
2022-08-05T00:58:50.389Z,86.04
2022-08-05T01:02:17.019Z,86.54
2022-08-05T01:04:43.686Z,84.73
2022-08-05T01:08:41.698Z,86.70
2022-08-05T01:10:57.924Z,84.47
2022-08-05T01:13:58.551Z,81.71
2022-08-05T01:17:09.390Z,80.50
2022-08-05T01:20:01.964Z,78.83
2022-08-05T01:23:47.144Z,76.38
2022-08-05T01:26:56.970Z,76.56
2022-08-05T01:29:39.623Z,75.33
2022-08-05T01:32:12.712Z,74.19
2022-08-05T01:35:02.651Z,70.89
2022-08-05T01:37:44.338Z,69.69
2022-08-05T01:40:17.815Z,69.57
2022-08-05T01:42:51.307Z,71.26
2022-08-05T01:45:34.961Z,70.86
2022-08-05T01:48:12.923Z,70.94
2022-08-05T01:50:41.731Z,72.11
2022-08-05T01:53:54.879Z,71.36
2022-08-05T01:58:09.772Z,70.28
2022-08-05T01:59:07.568Z,68.92
2022-08-05T02:01:39.982Z,69.39
2022-08-05T02:04:10.377Z,69.92
2022-08-05T02:06:39.876Z,70.07
2022-08-05T02:09:08.292Z,71.79
2022-08-05T02:11:52.609Z,73.81
2022-08-05T02:14:55.437Z,71.65
2022-08-05T02:21:56.524Z,73.94
2022-08-05T02:28:02.388Z,69.94
2022-08-05T02:30:57.130Z,70.07
2022-08-05T02:33:38.280Z,69.60
2022-08-05T02:36:09.812Z,69.77
2022-08-05T02:41:43.019Z,70.49
2022-08-05T02:44:19.789Z,70.80
2022-08-05T02:47:00.912Z,70.10
2022-08-05T02:49:37.143Z,68.49
2022-08-05T02:52:29.740Z,69.10
2022-08-05T02:54:58.974Z,68.75
2022-08-05T02:58:09.941Z,68.92
2022-08-05T03:00:17.965Z,68.43
2022-08-05T03:02:47.960Z,69.25
2022-08-05T03:05:21.852Z,69.51
2022-08-05T03:08:08.945Z,70.44
2022-08-05T03:10:36.553Z,73.83
2022-08-05T03:13:16.723Z,75.03
2022-08-05T03:15:54.623Z,72.86
2022-08-05T03:18:24.685Z,76.51
2022-08-05T03:20:57.027Z,77.86
2022-08-05T03:23:26.011Z,77.94
2022-08-05T03:26:04.725Z,77.72
2022-08-05T03:28:42.590Z,77.78
2022-08-05T03:31:09.403Z,76.03
2022-08-05T03:33:52.702Z,77.59
2022-08-05T03:36:30.182Z,76.85
2022-08-05T03:38:59.070Z,77.31
2022-08-05T03:41:33.251Z,78.00
2022-08-05T03:44:11.530Z,79.49
2022-08-05T03:46:53.751Z,81.60
2022-08-05T03:49:21.088Z,81.62
2022-08-05T03:52:36.907Z,81.24
2022-08-05T03:56:00.779Z,80.98
2022-08-05T03:57:46.115Z,80.35
2022-08-05T04:00:18.189Z,81.17
2022-08-05T04:02:57.685Z,81.50
2022-08-05T04:05:40.208Z,82.70
2022-08-05T04:08:29.647Z,82.72
2022-08-05T04:11:02.266Z,80.47
2022-08-05T04:13:50.930Z,79.76
2022-08-05T04:16:24.922Z,80.32
2022-08-05T04:18:57.786Z,80.81
2022-08-05T04:22:09.882Z,81.17
2022-08-05T04:24:19.613Z,79.08
2022-08-05T04:26:50.361Z,79.25
2022-08-05T04:29:24.786Z,79.50
2022-08-05T04:31:53.875Z,79.17
2022-08-05T04:34:32.473Z,79.40
2022-08-05T04:37:03.462Z,81.38
2022-08-05T04:40:19.628Z,81.37
2022-08-05T04:42:52.437Z,80.94
2022-08-05T04:45:22.930Z,80.16
2022-08-05T04:48:28.518Z,80.00
2022-08-05T04:51:03.405Z,80.34
2022-08-05T04:53:38.641Z,82.49
2022-08-05T04:56:33.789Z,83.45
2022-08-05T04:58:58.265Z,84.62
2022-08-05T05:02:04.053Z,84.14
2022-08-05T05:04:13.627Z,84.56
2022-08-05T05:06:44.847Z,83.94
2022-08-05T05:09:18.331Z,84.09
2022-08-05T05:11:52.950Z,82.80
2022-08-05T05:14:31.537Z,83.26
2022-08-05T05:17:02.130Z,83.66
2022-08-05T05:19:56.562Z,85.58
2022-08-05T05:22:26.029Z,85.73
2022-08-05T05:24:56.852Z,85.75
2022-08-05T05:27:56.250Z,85.66
2022-08-05T05:30:29.645Z,86.71
2022-08-05T05:33:00.972Z,83.10
2022-08-05T05:35:37.992Z,83.22
2022-08-05T05:38:09.174Z,85.58
2022-08-05T05:40:49.621Z,83.50
2022-08-05T05:43:27.560Z,83.17
2022-08-05T05:46:13.813Z,83.10
2022-08-05T05:48:44.529Z,81.79
2022-08-05T05:51:14.980Z,81.50
2022-08-05T05:53:46.012Z,80.01
2022-08-05T05:56:26.108Z,81.02
2022-08-05T05:58:58.642Z,80.82
2022-08-05T06:01:37.742Z,80.74
2022-08-05T06:04:05.471Z,80.89
2022-08-05T06:06:34.677Z,79.56
2022-08-05T06:09:03.836Z,79.55
2022-08-05T06:11:30.582Z,80.39
2022-08-05T06:13:57.209Z,79.08
2022-08-05T06:16:28.320Z,79.98
2022-08-05T06:19:01.246Z,79.33
2022-08-05T06:21:36.799Z,80.69
2022-08-05T06:24:11.929Z,82.44
2022-08-05T06:26:51.883Z,81.68
2022-08-05T06:29:24.993Z,79.75
2022-08-05T06:32:21.451Z,79.14
2022-08-05T06:34:56.752Z,78.11
2022-08-05T06:37:55.896Z,79.17
2022-08-05T06:40:21.031Z,79.09
2022-08-05T06:42:51.879Z,80.01
2022-08-05T06:45:43.943Z,80.58
2022-08-05T06:48:44.294Z,80.09
2022-08-05T06:51:09.530Z,80.62
2022-08-05T06:53:39.368Z,79.82
2022-08-05T06:56:07.306Z,79.26
2022-08-05T06:58:52.766Z,77.86
2022-08-05T07:01:21.010Z,78.31
2022-08-05T07:03:47.924Z,78.06
2022-08-05T07:06:15.265Z,78.12
2022-08-05T07:08:47.772Z,77.62
2022-08-05T07:11:19.689Z,77.57
2022-08-05T07:14:07.887Z,80.03
2022-08-05T07:17:58.982Z,80.95
2022-08-05T07:22:30.234Z,84.03
2022-08-05T07:25:23.147Z,85.43
2022-08-05T07:27:58.152Z,83.36
2022-08-05T07:30:33.664Z,82.11
2022-08-05T07:33:09.943Z,78.72
2022-08-05T07:36:01.485Z,79.49
2022-08-05T07:38:34.378Z,76.26
2022-08-05T07:41:35.026Z,79.69
2022-08-05T07:43:56.922Z,78.17
2022-08-05T07:46:28.528Z,75.09
2022-08-05T07:49:02.311Z,75.69
2022-08-05T07:51:37.098Z,75.14
2022-08-05T07:54:09.799Z,75.64
2022-08-05T07:57:13.629Z,75.76
2022-08-05T07:59:38.638Z,76.37
2022-08-05T08:02:15.448Z,75.85
2022-08-05T08:04:45.607Z,77.16
2022-08-05T08:07:13.012Z,76.46
2022-08-05T08:09:39.923Z,76.81
2022-08-05T08:12:27.535Z,76.80
2022-08-05T08:14:54.793Z,75.81
2022-08-05T08:17:22.254Z,73.89
2022-08-05T08:20:44.495Z,72.77
2022-08-05T08:22:37.561Z,73.06
2022-08-05T08:25:15.805Z,72.51
2022-08-05T08:27:44.940Z,74.44
2022-08-05T08:30:29.475Z,74.94
2022-08-05T08:33:02.562Z,74.81
2022-08-05T08:36:07.985Z,76.71
2022-08-05T08:38:38.947Z,78.83
2022-08-05T08:41:08.557Z,76.35
2022-08-05T08:45:24.776Z,75.75
2022-08-05T08:46:27.488Z,76.90
2022-08-05T08:49:06.357Z,73.89
2022-08-05T08:52:05.608Z,72.58
2022-08-05T08:54:31.699Z,74.74
2022-08-05T08:57:00.418Z,74.20
2022-08-05T08:59:33.537Z,76.07
2022-08-05T09:02:04.445Z,75.28
2022-08-05T09:04:58.467Z,77.25
2022-08-05T09:07:28.747Z,75.35
2022-08-05T09:09:56.601Z,74.93
2022-08-05T09:12:27.364Z,73.42
2022-08-05T09:14:59.426Z,73.05
2022-08-05T09:17:42.358Z,72.46
2022-08-05T09:20:36.644Z,72.27
2022-08-05T09:23:07.984Z,72.23
2022-08-05T09:25:59.869Z,70.95
2022-08-05T09:28:31.631Z,71.57
2022-08-05T09:31:22.408Z,70.96
2022-08-05T09:34:11.659Z,71.00
2022-08-05T09:36:59.811Z,72.07
2022-08-05T09:39:45.263Z,71.45
2022-08-05T09:42:40.126Z,71.45
2022-08-05T09:46:04.697Z,71.19
2022-08-05T09:48:00.271Z,71.63
2022-08-05T09:51:14.971Z,69.58
2022-08-05T09:53:53.853Z,69.79
2022-08-05T09:56:34.120Z,71.30
2022-08-05T09:59:09.674Z,71.64
2022-08-05T10:01:46.496Z,72.73
2022-08-05T10:04:16.215Z,73.89
2022-08-05T10:07:01.672Z,74.64
2022-08-05T10:10:04.398Z,73.59
2022-08-05T10:12:52.730Z,73.76
2022-08-05T10:15:34.268Z,73.18
2022-08-05T10:18:13.408Z,73.76
2022-08-05T10:20:47.687Z,72.90
2022-08-05T10:23:55.108Z,73.29
2022-08-05T10:26:18.143Z,72.11
2022-08-05T10:28:47.731Z,73.99
2022-08-05T10:32:49.466Z,74.93
2022-08-05T10:34:07.092Z,73.96
2022-08-05T10:36:40.474Z,73.02
2022-08-05T10:39:15.183Z,71.54
2022-08-05T10:42:18.552Z,72.17
2022-08-05T10:44:46.756Z,71.83
2022-08-05T10:47:27.113Z,71.17
2022-08-05T10:50:31.606Z,70.79
2022-08-05T10:53:02.275Z,71.12
2022-08-05T10:56:03.618Z,73.60
2022-08-05T10:58:21.783Z,72.69
2022-08-05T11:01:07.401Z,71.84
2022-08-05T11:04:15.698Z,73.49
2022-08-05T11:07:02.216Z,72.56
2022-08-05T11:09:45.614Z,71.76
2022-08-05T11:12:45.469Z,73.36
2022-08-05T11:16:01.171Z,73.87
2022-08-05T11:18:30.047Z,75.96
2022-08-05T11:20:59.109Z,75.69
2022-08-05T11:24:03.812Z,76.14
2022-08-05T11:26:37.088Z,74.88
2022-08-05T11:29:13.466Z,76.54
2022-08-05T11:31:58.907Z,74.35
2022-08-05T11:34:51.826Z,74.28
2022-08-05T11:38:36.562Z,74.41
2022-08-05T11:41:03.508Z,71.69
2022-08-05T11:44:05.962Z,72.50
2022-08-05T11:47:09.634Z,71.94
2022-08-05T11:49:28.431Z,72.88
2022-08-05T11:51:55.309Z,72.03
2022-08-05T11:54:33.587Z,72.94
2022-08-05T11:57:25.169Z,73.01
2022-08-05T12:00:02.310Z,72.29
2022-08-05T12:02:36.113Z,73.08
2022-08-05T12:05:07.010Z,73.89
2022-08-05T12:08:03.361Z,74.95
2022-08-05T12:10:45.598Z,75.14
2022-08-05T12:13:17.046Z,75.83
2022-08-05T12:15:50.241Z,75.86
2022-08-05T12:18:33.291Z,74.73
2022-08-05T12:21:19.687Z,75.32
2022-08-05T12:24:04.319Z,74.70
2022-08-05T12:26:44.117Z,76.98
2022-08-05T12:29:17.993Z,75.37
2022-08-05T12:32:02.044Z,75.68
2022-08-05T12:34:33.749Z,75.13
2022-08-05T12:37:29.822Z,78.97
2022-08-05T12:40:10.655Z,75.73
2022-08-05T12:42:37.520Z,75.64
2022-08-05T12:45:09.711Z,74.73
2022-08-05T12:47:38.331Z,73.77
2022-08-05T12:50:19.940Z,74.61
2022-08-05T12:52:59.756Z,72.90
2022-08-05T12:55:33.016Z,71.11
2022-08-05T12:58:38.552Z,71.49
2022-08-05T13:02:01.735Z,69.92
2022-08-05T13:03:42.183Z,68.20
2022-08-05T13:06:19.866Z,68.57
2022-08-05T13:08:51.987Z,69.36
2022-08-05T13:12:01.479Z,68.12
2022-08-05T13:14:35.964Z,68.48
2022-08-05T13:17:31.602Z,67.28
2022-08-05T13:20:23.452Z,67.94
2022-08-05T13:22:53.367Z,69.18
2022-08-05T13:25:51.981Z,68.82
2022-08-05T13:28:11.714Z,67.24
2022-08-05T13:30:40.831Z,66.63
2022-08-05T13:33:07.603Z,63.39
2022-08-05T13:35:47.286Z,63.27
2022-08-05T13:38:28.182Z,66.01
2022-08-05T13:40:58.530Z,63.54
2022-08-05T13:43:43.341Z,63.08
2022-08-05T13:46:12.710Z,67.00
2022-08-05T13:48:58.742Z,65.17
2022-08-05T13:51:40.307Z,66.21
2022-08-05T13:54:12.560Z,65.41
2022-08-05T13:56:45.576Z,63.02
2022-08-05T13:59:24.167Z,63.50
2022-08-05T14:02:00.382Z,64.45
2022-08-05T14:04:50.021Z,61.23
2022-08-05T14:07:25.689Z,62.44
2022-08-05T14:10:18.955Z,60.31
2022-08-05T14:12:55.158Z,60.96
2022-08-05T14:16:04.464Z,59.71
2022-08-05T14:18:15.283Z,58.25
2022-08-05T14:20:47.930Z,60.91
2022-08-05T14:23:23.470Z,57.31
2022-08-05T14:25:53.973Z,56.86
2022-08-05T14:28:26.880Z,57.65
2022-08-05T14:30:54.440Z,59.70
2022-08-05T14:33:22.683Z,57.96
2022-08-05T14:35:51.564Z,59.73
2022-08-05T14:38:32.558Z,58.06
2022-08-05T14:41:07.941Z,58.93
2022-08-05T14:43:59.324Z,58.40
2022-08-05T14:46:23.462Z,59.86
2022-08-05T14:48:56.867Z,57.05
2022-08-05T14:51:24.863Z,58.99
2022-08-05T14:54:27.746Z,58.45
2022-08-05T14:56:47.030Z,57.36
2022-08-05T14:59:35.600Z,58.09
2022-08-05T15:02:03.952Z,56.03
2022-08-05T15:04:45.033Z,57.44
2022-08-05T15:08:08.865Z,58.13
2022-08-05T15:10:01.483Z,57.56
2022-08-05T15:12:51.597Z,57.19
2022-08-05T15:15:55.661Z,58.19
2022-08-05T15:18:07.832Z,57.05
2022-08-05T15:20:37.448Z,58.87
2022-08-05T15:23:09.517Z,57.26
2022-08-05T15:25:52.968Z,56.69
2022-08-05T15:28:26.958Z,56.78
2022-08-05T15:30:55.183Z,57.90
2022-08-05T15:34:18.535Z,57.34
2022-08-05T15:36:17.819Z,57.61
2022-08-05T15:40:58.793Z,58.31
2022-08-05T15:41:56.299Z,57.89
2022-08-05T15:44:27.551Z,57.43
2022-08-05T15:46:57.932Z,58.66
2022-08-05T15:49:53.644Z,58.99
2022-08-05T15:52:29.593Z,59.50
2022-08-05T15:55:08.388Z,57.54
2022-08-05T16:01:29.296Z,59.59
2022-08-05T16:03:59.572Z,61.95
2022-08-05T16:17:13.273Z,73.71
2022-08-05T16:20:04.337Z,74.49
2022-08-05T16:22:38.698Z,69.62
2022-08-05T16:25:11.463Z,68.40
2022-08-05T16:27:59.811Z,66.74
2022-08-05T16:34:16.470Z,68.89
2022-08-05T16:40:06.443Z,72.40
2022-08-05T16:46:04.781Z,71.84
2022-08-05T16:52:06.189Z,73.14
2022-08-05T16:54:36.163Z,75.15
2022-08-05T17:00:50.180Z,71.44
2022-08-05T17:03:21.358Z,69.86
2022-08-05T17:05:54.034Z,72.39
2022-08-05T17:08:52.676Z,72.90
2022-08-05T17:11:25.783Z,66.45
2022-08-05T17:14:00.629Z,65.60
2022-08-05T17:16:38.212Z,67.67
2022-08-05T17:19:10.991Z,66.71
2022-08-05T17:21:59.661Z,66.19
2022-08-05T17:24:35.062Z,67.91
2022-08-05T17:27:09.975Z,66.00
2022-08-05T17:30:00.590Z,62.37
2022-08-05T17:32:35.167Z,61.85
2022-08-05T17:35:05.403Z,62.34
2022-08-05T17:37:41.545Z,61.43
2022-08-05T17:40:18.514Z,60.88
2022-08-05T17:42:53.215Z,65.21
2022-08-05T17:45:25.157Z,62.82
2022-08-05T17:48:39.112Z,60.41
2022-08-05T17:54:42.406Z,58.63
2022-08-05T17:57:50.006Z,61.54
2022-08-05T18:00:31.144Z,60.66
2022-08-05T18:03:02.579Z,61.49
2022-08-05T18:05:35.579Z,62.45
2022-08-05T18:17:01.209Z,58.26
2022-08-05T18:19:54.057Z,58.59
2022-08-05T18:23:15.961Z,58.17
2022-08-05T18:25:57.810Z,57.63
2022-08-05T18:28:37.199Z,59.60
2022-08-05T18:31:33.806Z,57.77
2022-08-05T18:34:13.509Z,58.66
2022-08-05T18:37:33.656Z,58.39
2022-08-05T18:41:53.995Z,57.92
2022-08-05T18:43:48.709Z,59.71
2022-08-05T18:46:59.050Z,58.61
2022-08-05T19:25:21.641Z,59.32
2022-08-05T19:30:48.883Z,59.45
2022-08-05T19:33:35.122Z,58.95
2022-08-05T19:36:06.402Z,59.14
2022-08-05T19:38:39.156Z,58.91
2022-08-05T19:41:34.694Z,58.44
2022-08-05T19:44:20.068Z,59.38
2022-08-05T19:46:53.536Z,59.22
2022-08-05T19:49:26.631Z,58.91
2022-08-05T19:52:09.285Z,58.99
2022-08-05T19:54:47.557Z,58.25
2022-08-05T19:57:20.065Z,57.76
2022-08-05T20:00:10.188Z,58.32
2022-08-05T20:03:00.061Z,58.03
2022-08-05T20:05:43.130Z,58.45
2022-08-05T20:08:37.963Z,58.51
2022-08-05T20:11:40.109Z,58.93
2022-08-05T20:14:12.671Z,59.68
2022-08-05T20:16:44.677Z,60.65
2022-08-05T20:19:16.549Z,60.95
2022-08-05T20:21:48.607Z,61.41
2022-08-05T20:24:27.352Z,61.26
2022-08-05T20:26:57.342Z,61.07
2022-08-05T20:29:27.800Z,60.98
2022-08-05T20:32:04.401Z,61.34
2022-08-05T20:34:33.854Z,61.53
2022-08-05T20:37:18.116Z,61.26
2022-08-05T20:40:21.444Z,62.36
2022-08-05T20:42:54.516Z,61.52
2022-08-05T20:45:55.768Z,61.59
2022-08-05T20:48:32.714Z,61.45
2022-08-05T20:51:08.108Z,61.14
2022-08-05T20:53:40.944Z,61.67
2022-08-05T20:59:46.078Z,61.10
2022-08-05T21:02:39.615Z,61.21
2022-08-05T21:05:24.903Z,60.61
2022-08-05T21:07:56.266Z,61.25
2022-08-05T21:10:49.401Z,61.32
2022-08-05T21:13:47.488Z,61.46
2022-08-05T21:16:16.923Z,62.08
2022-08-05T21:18:47.701Z,61.76
2022-08-05T21:21:17.264Z,61.56
2022-08-05T21:23:47.949Z,61.66
2022-08-05T21:26:21.411Z,61.37
2022-08-05T21:28:56.286Z,61.82
2022-08-05T21:31:41.521Z,61.21
2022-08-05T21:34:11.671Z,60.82
2022-08-05T21:36:43.386Z,61.20
2022-08-05T21:39:26.841Z,61.03
2022-08-05T21:42:01.070Z,61.53
2022-08-05T21:44:34.401Z,61.30
2022-08-05T21:47:05.521Z,61.29
2022-08-05T21:50:00.059Z,60.78
2022-08-05T21:52:40.764Z,61.52
2022-08-05T21:55:42.817Z,61.43
2022-08-05T21:58:10.251Z,61.39
2022-08-05T22:01:00.497Z,61.12
2022-08-05T22:03:49.088Z,61.64
2022-08-05T22:06:22.456Z,61.56
2022-08-05T22:09:01.334Z,61.62
2022-08-05T22:11:53.185Z,61.56
2022-08-05T22:14:35.867Z,61.86
2022-08-05T22:17:30.452Z,60.85
2022-08-05T22:20:14.648Z,60.81
2022-08-05T22:23:16.810Z,61.46
2022-08-05T22:26:09.996Z,61.69
2022-08-05T22:28:39.684Z,62.08
2022-08-05T22:31:11.220Z,62.13
2022-08-05T22:33:57.973Z,62.33
2022-08-05T22:36:30.914Z,62.34
2022-08-05T22:39:21.519Z,63.02
2022-08-05T22:42:10.314Z,61.96
2022-08-05T22:44:53.585Z,62.21
2022-08-05T22:47:28.972Z,62.31
2022-08-05T22:50:19.029Z,62.25
2022-08-05T22:52:53.642Z,62.75
2022-08-05T22:55:24.276Z,63.24
2022-08-05T22:57:53.651Z,63.40
2022-08-05T23:00:24.754Z,63.62
2022-08-05T23:02:56.728Z,63.38
2022-08-05T23:05:31.500Z,63.73
2022-08-05T23:08:06.260Z,63.34
2022-08-05T23:10:33.354Z,63.65
2022-08-05T23:13:03.248Z,63.31
2022-08-05T23:15:36.354Z,63.69
2022-08-05T23:18:11.602Z,64.38
2022-08-05T23:20:44.181Z,64.69
2022-08-05T23:23:10.784Z,64.57
2022-08-05T23:25:51.131Z,64.44
2022-08-05T23:28:26.895Z,64.75
2022-08-05T23:31:16.046Z,64.25
2022-08-05T23:34:03.879Z,64.65
2022-08-05T23:36:45.674Z,64.43
2022-08-05T23:39:17.430Z,64.78
2022-08-05T23:41:56.342Z,64.84
2022-08-05T23:44:27.829Z,64.39
2022-08-05T23:47:02.611Z,64.60
2022-08-05T23:49:45.926Z,65.21
2022-08-05T23:52:30.745Z,65.35
2022-08-05T23:55:08.996Z,64.63
2022-08-05T23:57:38.786Z,65.58
